Time;durP1;ratioP1;P1;durP2;ratioP2;P2;SDS_P1;SDS_P2;PMS_P1;PMS_P2;Temp;Humidity;BMP_temperature;BMP_pressure;BME280_temperature;BME280_humidity;BME280_pressure;Samples;Min_cycle;Max_cycle;Signal;HPM_P1;HPM_P2
2022/08/17 00:01:02;;;;;;;24.63;16.70;;;;;;;16.47;100.00;97575.09;1740839;81;20990;-90
2022/08/17 00:03:38;;;;;;;30.77;17.20;;;;;;;16.44;100.00;97573.02;1741356;81;21391;-86
2022/08/17 00:06:15;;;;;;;23.52;17.65;;;;;;;16.42;100.00;97569.82;1742906;81;21526;-87
2022/08/17 00:08:46;;;;;;;22.50;17.25;;;;;;;16.46;100.00;97570.19;1753724;81;21513;-87
2022/08/17 00:11:16;;;;;;;19.48;14.80;;;;;;;16.44;100.00;97568.92;1766090;81;21156;-90
2022/08/17 00:13:48;;;;;;;20.23;15.65;;;;;;;16.41;100.00;97566.83;1765758;81;20965;-91
2022/08/17 00:16:22;;;;;;;26.65;16.90;;;;;;;16.34;100.00;97572.26;1765745;81;21005;-87
2022/08/17 00:18:49;;;;;;;22.98;16.80;;;;;;;16.25;100.00;97563.86;1755723;81;20970;-90
2022/08/17 00:21:17;;;;;;;24.32;17.02;;;;;;;16.27;100.00;97560.23;1748643;80;21358;-87
2022/08/17 00:23:43;;;;;;;27.48;16.70;;;;;;;16.30;100.00;97554.89;1760247;81;21171;-87
2022/08/17 00:26:09;;;;;;;19.35;16.48;;;;;;;16.31;100.00;97559.23;1765902;81;21418;-88
2022/08/17 00:28:36;;;;;;;21.45;15.35;;;;;;;16.31;100.00;97552.39;1766057;81;20937;-86
2022/08/17 00:31:02;;;;;;;21.60;15.58;;;;;;;16.31;100.00;97555.69;1747884;80;20882;-86
2022/08/17 00:33:30;;;;;;;20.20;16.10;;;;;;;16.27;100.00;97554.76;1748386;81;21011;-86
2022/08/17 00:35:56;;;;;;;20.75;15.35;;;;;;;16.23;100.00;97550.49;1735981;81;21827;-91
2022/08/17 00:38:22;;;;;;;23.25;15.38;;;;;;;16.20;100.00;97553.89;1736838;81;21019;-91
2022/08/17 00:40:58;;;;;;;21.77;15.32;;;;;;;16.16;100.00;97551.59;1742832;81;21053;-86
2022/08/17 00:43:38;;;;;;;19.05;14.98;;;;;;;16.12;100.00;97552.55;1750071;80;21011;-90
2022/08/17 00:46:15;;;;;;;24.07;15.43;;;;;;;16.07;100.00;97555.72;1758714;79;21521;-91
2022/08/17 00:48:42;;;;;;;23.57;14.65;;;;;;;16.01;100.00;97555.64;1764959;81;21849;-86
2022/08/17 00:51:41;;;;;;;21.37;15.18;;;;;;;16.00;100.00;97555.98;1765943;81;21033;-86
2022/08/17 00:54:17;;;;;;;19.10;14.98;;;;;;;15.94;100.00;97550.44;1756941;81;20989;-89
2022/08/17 00:56:53;;;;;;;20.52;15.10;;;;;;;15.92;100.00;97549.97;1762482;81;21032;-87
2022/08/17 00:59:21;;;;;;;20.65;16.82;;;;;;;15.90;100.00;97543.47;1756178;81;21002;-86
2022/08/17 01:01:48;;;;;;;26.93;16.15;;;;;;;15.89;100.00;97545.94;1756376;81;21714;-91
2022/08/17 01:04:14;;;;;;;19.95;15.63;;;;;;;15.88;100.00;97552.53;1750545;81;21045;-91
2022/08/17 01:06:41;;;;;;;21.57;16.15;;;;;;;15.86;100.00;97549.33;1756196;79;20875;-86
2022/08/17 01:09:07;;;;;;;22.17;15.38;;;;;;;15.85;100.00;97551.83;1766293;81;21037;-87
2022/08/17 01:11:35;;;;;;;19.02;15.93;;;;;;;15.85;100.00;97550.47;1765875;81;21017;-90
2022/08/17 01:14:01;;;;;;;20.10;15.30;;;;;;;15.84;100.00;97548.86;1765730;81;21313;-86
2022/08/17 01:16:29;;;;;;;24.57;16.45;;;;;;;15.82;100.00;97547.59;1766215;79;20953;-88
2022/08/17 01:19:00;;;;;;;22.83;16.10;;;;;;;15.82;100.00;97549.76;1747410;80;21440;-87
2022/08/17 01:21:34;;;;;;;19.87;15.65;;;;;;;15.81;100.00;97549.52;1775886;79;20986;-90
2022/08/17 01:24:00;;;;;;;17.20;14.45;;;;;;;15.77;100.00;97553.45;1764144;79;21022;-90
2022/08/17 01:26:26;;;;;;;21.65;16.12;;;;;;;15.77;100.00;97560.84;1766130;80;20994;-90
2022/08/17 01:28:52;;;;;;;19.82;15.32;;;;;;;15.76;100.00;97561.41;1765899;80;20971;-91
2022/08/17 01:31:18;;;;;;;25.92;15.38;;;;;;;15.75;100.00;97561.17;1765966;79;20843;-91
2022/08/17 01:33:44;;;;;;;32.75;15.03;;;;;;;15.73;100.00;97565.36;1766058;80;20922;-90
2022/08/17 01:36:10;;;;;;;18.07;14.70;;;;;;;15.70;100.00;97565.42;1765896;80;21029;-87
2022/08/17 01:38:37;;;;;;;21.85;14.40;;;;;;;15.70;100.00;97562.70;1751971;80;22077;-87
2022/08/17 01:41:11;;;;;;;20.05;14.43;;;;;;;15.69;100.00;97565.19;1762669;81;20946;-90
2022/08/17 01:43:45;;;;;;;17.02;14.58;;;;;;;15.66;100.00;97566.41;1728117;81;21471;-90
2022/08/17 01:46:20;;;;;;;22.95;15.30;;;;;;;15.63;100.00;97565.11;1756815;79;20946;-87
2022/08/17 01:48:47;;;;;;;21.20;16.02;;;;;;;15.61;100.00;97567.37;1765736;81;21526;-89
2022/08/17 01:51:14;;;;;;;19.80;14.28;;;;;;;15.60;100.00;97568.47;1741513;81;21126;-86
2022/08/17 01:53:44;;;;;;;18.10;13.95;;;;;;;15.57;100.00;97573.78;1750791;81;20955;-87
2022/08/17 01:56:13;;;;;;;24.65;16.77;;;;;;;15.55;100.00;97574.08;1730334;82;20971;-86
2022/08/17 01:58:39;;;;;;;22.40;15.45;;;;;;;15.49;100.00;97576.20;1740552;82;20980;-90
2022/08/17 02:01:06;;;;;;;19.35;14.98;;;;;;;15.47;100.00;97574.36;1751149;82;21014;-90
2022/08/17 02:03:33;;;;;;;24.02;16.50;;;;;;;15.50;100.00;97582.45;1730061;82;21343;-90
2022/08/17 02:05:59;;;;;;;28.40;17.48;;;;;;;15.48;100.00;97581.41;1740661;82;21011;-86
2022/08/17 02:08:27;;;;;;;28.27;15.90;;;;;;;15.49;100.00;97578.13;1750751;81;20998;-86
2022/08/17 02:10:53;;;;;;;28.80;15.78;;;;;;;15.49;100.00;97584.38;1755439;81;20973;-90
2022/08/17 02:13:20;;;;;;;19.87;14.38;;;;;;;15.48;100.00;97581.41;1752556;81;20884;-86
2022/08/17 02:15:46;;;;;;;22.20;15.88;;;;;;;15.49;100.00;97572.66;1741529;81;21125;-88
2022/08/17 02:18:12;;;;;;;22.37;16.90;;;;;;;15.47;100.00;97572.98;1740459;82;20883;-87
2022/08/17 02:20:39;;;;;;;19.02;15.55;;;;;;;15.51;100.00;97571.20;1755369;80;21029;-91
2022/08/17 02:23:07;;;;;;;20.25;14.23;;;;;;;15.51;100.00;97574.50;1768726;80;20954;-87
2022/08/17 02:25:33;;;;;;;22.43;15.30;;;;;;;15.48;100.00;97570.50;1735516;81;21386;-86
2022/08/17 02:27:59;;;;;;;20.43;14.58;;;;;;;15.45;100.00;97568.39;1740292;81;21123;-90
2022/08/17 02:30:25;;;;;;;18.48;15.38;;;;;;;15.40;100.00;97568.57;1741547;81;20986;-91
2022/08/17 02:32:52;;;;;;;21.65;15.78;;;;;;;15.38;100.00;97559.08;1741048;81;21396;-86
2022/08/17 02:35:18;;;;;;;21.80;14.40;;;;;;;15.33;100.00;97561.42;1755552;81;21045;-90
2022/08/17 02:37:44;;;;;;;22.50;14.80;;;;;;;15.32;100.00;97560.38;1765829;80;21032;-87
2022/08/17 02:40:10;;;;;;;22.93;14.83;;;;;;;15.34;100.00;97563.59;1753062;81;21150;-86
2022/08/17 02:42:39;;;;;;;23.30;14.70;;;;;;;15.30;100.00;97573.56;1739232;81;21045;-86
2022/08/17 02:45:12;;;;;;;19.75;15.68;;;;;;;15.30;100.00;97572.99;1765991;81;21405;-90
2022/08/17 02:47:39;;;;;;;20.68;16.30;;;;;;;15.31;100.00;97570.50;1765379;81;21017;-86
2022/08/17 02:50:06;;;;;;;19.95;15.43;;;;;;;15.34;100.00;97573.94;1746857;80;22199;-87
2022/08/17 02:52:34;;;;;;;18.98;15.53;;;;;;;15.37;100.00;97570.56;1740338;81;21487;-86
2022/08/17 02:55:00;;;;;;;28.38;15.28;;;;;;;15.36;100.00;97573.05;1752608;81;20955;-86
2022/08/17 02:57:26;;;;;;;18.70;14.80;;;;;;;15.33;100.00;97577.00;1765618;81;20942;-91
2022/08/17 02:59:52;;;;;;;21.90;15.43;;;;;;;15.31;100.00;97579.25;1751433;81;20871;-90
2022/08/17 03:02:18;;;;;;;27.93;15.65;;;;;;;15.27;100.00;97582.37;1765974;81;20971;-87
2022/08/17 03:04:44;;;;;;;20.52;14.53;;;;;;;15.23;100.00;97584.38;1757706;80;21733;-88
2022/08/17 03:07:10;;;;;;;22.20;15.08;;;;;;;15.23;100.00;97587.67;1746651;81;21667;-87
2022/08/17 03:09:36;;;;;;;17.95;13.93;;;;;;;15.21;100.00;97580.34;1735639;80;21038;-90
2022/08/17 03:12:05;;;;;;;20.37;15.30;;;;;;;15.13;100.00;97583.34;1741582;82;20880;-86
2022/08/17 03:14:31;;;;;;;22.40;14.93;;;;;;;15.13;100.00;97596.18;1762770;81;20989;-87
2022/08/17 03:16:58;;;;;;;21.82;13.83;;;;;;;15.12;100.00;97593.18;1766071;80;21285;-86
2022/08/17 03:19:24;;;;;;;17.85;14.87;;;;;;;15.09;100.00;97593.27;1752032;79;21432;-87
2022/08/17 03:21:50;;;;;;;19.32;14.55;;;;;;;15.08;100.00;97590.30;1772157;79;21475;-86
2022/08/17 03:24:16;;;;;;;16.67;14.13;;;;;;;15.06;100.00;97588.45;1760272;80;21522;-86
2022/08/17 03:26:42;;;;;;;19.85;14.55;;;;;;;15.05;100.00;97590.15;1756526;81;21052;-86
2022/08/17 03:29:08;;;;;;;25.80;15.70;;;;;;;15.02;100.00;97588.03;1743610;80;21027;-90
2022/08/17 03:31:34;;;;;;;21.52;14.07;;;;;;;15.00;100.00;97595.74;1739580;82;20935;-86
2022/08/17 03:33:59;;;;;;;22.02;14.98;;;;;;;14.94;100.00;97592.35;1740313;81;20851;-86
2022/08/17 03:36:25;;;;;;;19.23;14.03;;;;;;;14.93;100.00;97591.55;1740822;82;20887;-90
2022/08/17 03:38:51;;;;;;;23.60;15.55;;;;;;;14.92;100.00;97589.95;1740536;82;20875;-90
2022/08/17 03:41:17;;;;;;;20.00;14.85;;;;;;;14.94;100.00;97595.88;1740728;82;21312;-87
2022/08/17 03:43:43;;;;;;;26.95;14.65;;;;;;;14.97;100.00;97593.66;1749869;81;21642;-91
2022/08/17 03:57:08;;;;;;;20.02;14.93;;;;;;;15.06;100.00;97607.56;1751629;81;20927;-89
2022/08/17 03:59:35;;;;;;;22.27;16.10;;;;;;;15.05;100.00;97607.88;1742548;81;20975;-90
2022/08/17 04:02:08;;;;;;;22.48;15.08;;;;;;;15.06;100.00;97613.02;1740648;82;21419;-90
2022/08/17 04:04:35;;;;;;;21.07;15.15;;;;;;;15.08;100.00;97617.59;1737760;81;21012;-91
2022/08/17 04:07:01;;;;;;;22.40;15.35;;;;;;;15.11;100.00;97621.03;1731529;81;21122;-91
2022/08/17 04:09:27;;;;;;;21.57;15.28;;;;;;;15.15;100.00;97621.22;1745916;81;20851;-91
2022/08/17 04:11:53;;;;;;;22.42;16.82;;;;;;;15.15;100.00;97622.58;1746019;81;21019;-91
2022/08/17 04:14:19;;;;;;;20.90;15.28;;;;;;;15.17;100.00;97626.59;1744645;81;21439;-90
2022/08/17 04:16:45;;;;;;;18.75;15.93;;;;;;;15.21;100.00;97630.84;1731201;82;20975;-90
2022/08/17 04:19:11;;;;;;;21.50;15.53;;;;;;;15.24;100.00;97627.48;1747620;81;21137;-88
2022/08/17 04:21:37;;;;;;;20.80;16.70;;;;;;;15.31;100.00;97631.91;1749841;80;21515;-86
2022/08/17 04:24:04;;;;;;;21.68;15.95;;;;;;;15.40;100.00;97630.56;1740116;81;20994;-86
2022/08/17 04:26:30;;;;;;;19.12;14.90;;;;;;;15.43;100.00;97632.08;1738525;81;21010;-87
2022/08/17 04:28:57;;;;;;;21.05;15.43;;;;;;;15.43;100.00;97628.54;1748565;81;20943;-91
2022/08/17 04:31:23;;;;;;;19.77;15.45;;;;;;;15.47;100.00;97630.89;1744734;82;21881;-89
2022/08/17 04:33:49;;;;;;;22.25;15.13;;;;;;;15.52;100.00;97632.88;1708982;83;21005;-91
2022/08/17 04:36:15;;;;;;;21.42;16.00;;;;;;;15.51;100.00;97628.55;1726604;82;20960;-87
2022/08/17 04:38:43;;;;;;;21.40;14.85;;;;;;;15.54;100.00;97633.92;1726802;83;20972;-90
2022/08/17 04:43:54;;;;;;;23.83;16.42;;;;;;;15.65;100.00;97633.89;1670809;84;21416;-88
2022/08/17 04:46:28;;;;;;;21.05;14.43;;;;;;;15.66;100.00;97627.86;1725479;82;21007;-92
2022/08/17 04:48:56;;;;;;;20.65;15.83;;;;;;;15.73;100.00;97635.02;1760376;81;21013;-87
2022/08/17 04:51:26;;;;;;;27.48;18.50;;;;;;;15.82;100.00;97635.81;1772424;80;21001;-92
2022/08/17 04:53:59;;;;;;;15.63;13.65;;;;;;;15.89;100.00;97633.37;1765654;81;20981;-91
2022/08/17 04:56:25;;;;;;;25.10;14.03;;;;;;;15.95;100.00;97631.28;1768314;80;21312;-88
2022/08/17 04:58:54;;;;;;;21.60;14.30;;;;;;;16.00;100.00;97636.59;1767592;81;21454;-87
2022/08/17 05:01:21;;;;;;;20.40;13.00;;;;;;;16.11;100.00;97634.31;1752235;81;20955;-87
2022/08/17 05:03:47;;;;;;;20.40;15.65;;;;;;;16.16;100.00;97633.59;1734578;81;20977;-91
2022/08/17 05:06:13;;;;;;;33.45;15.55;;;;;;;16.23;100.00;97634.43;1732266;81;21689;-91
2022/08/17 05:08:39;;;;;;;30.48;16.30;;;;;;;16.34;100.00;97632.41;1729663;81;21298;-87
2022/08/17 05:11:05;;;;;;;22.77;15.98;;;;;;;16.45;100.00;97636.15;1738665;81;20999;-91
2022/08/17 05:13:31;;;;;;;22.62;17.48;;;;;;;16.55;100.00;97635.78;1752379;81;21033;-91
2022/08/17 05:15:59;;;;;;;23.67;16.70;;;;;;;16.69;100.00;97643.25;1762202;80;20914;-88
2022/08/17 05:18:25;;;;;;;16.75;14.07;;;;;;;16.84;100.00;97644.64;1761910;80;20994;-87
2022/08/17 05:20:51;;;;;;;19.48;14.60;;;;;;;16.94;100.00;97634.69;1742500;80;21144;-87
2022/08/17 05:23:18;;;;;;;26.15;14.98;;;;;;;17.06;100.00;97638.07;1754146;81;21541;-86
2022/08/17 05:25:47;;;;;;;20.65;15.55;;;;;;;17.15;100.00;97635.52;1756760;81;21013;-87
2022/08/17 05:28:15;;;;;;;23.12;17.00;;;;;;;17.28;100.00;97636.41;1753298;81;21014;-87
2022/08/17 05:30:42;;;;;;;23.40;16.63;;;;;;;17.44;100.00;97635.26;1763441;81;21024;-91
2022/08/17 05:33:13;;;;;;;23.73;17.85;;;;;;;17.61;100.00;97632.95;1758507;80;21893;-91
2022/08/17 05:35:43;;;;;;;19.17;15.10;;;;;;;17.67;100.00;97637.08;1738084;81;20956;-88
2022/08/17 05:38:09;;;;;;;22.35;15.85;;;;;;;17.75;100.00;97635.66;1748557;81;20995;-87
2022/08/17 05:40:35;;;;;;;21.37;16.55;;;;;;;17.83;100.00;97641.41;1756127;80;21054;-91
2022/08/17 05:43:13;;;;;;;18.67;15.35;;;;;;;17.89;100.00;97644.19;1757661;81;21022;-86
2022/08/17 05:46:00;;;;;;;17.12;13.32;;;;;;;18.00;100.00;97644.80;1734492;80;21150;-91
2022/08/17 05:48:26;;;;;;;19.52;13.28;;;;;;;18.15;100.00;97643.94;1750994;81;21073;-90
2022/08/17 05:51:21;;;;;;;14.58;12.63;;;;;;;18.19;100.00;97648.39;1746058;79;43044;-86
2022/08/17 05:54:09;;;;;;;19.35;13.93;;;;;;;18.25;100.00;97647.62;1739346;81;21091;-92
2022/08/17 05:56:58;;;;;;;15.68;12.70;;;;;;;18.43;100.00;97649.60;1754441;81;21067;-91
2022/08/17 05:59:38;;;;;;;18.80;12.90;;;;;;;18.53;100.00;97649.95;1740433;81;21154;-91
2022/08/17 06:02:21;;;;;;;14.60;13.05;;;;;;;18.68;100.00;97651.28;1734715;79;21018;-88
2022/08/17 06:05:05;;;;;;;21.77;13.62;;;;;;;18.87;100.00;97654.83;1709792;81;22101;-91
2022/08/17 06:07:42;;;;;;;22.73;14.35;;;;;;;19.00;100.00;97650.16;1750858;79;21100;-91
2022/08/17 06:10:30;;;;;;;19.48;15.20;;;;;;;19.21;100.00;97642.58;1743004;81;21099;-91
2022/08/17 06:13:11;;;;;;;18.37;15.08;;;;;;;19.43;100.00;97638.55;1755195;81;21110;-91
2022/08/17 06:16:01;;;;;;;24.12;16.07;;;;;;;19.62;100.00;97642.88;1752787;79;21053;-86
2022/08/17 06:18:32;;;;;;;15.43;13.62;;;;;;;19.75;100.00;97642.29;1750048;81;21632;-91
2022/08/17 06:21:01;;;;;;;16.35;14.10;;;;;;;19.99;100.00;97643.55;1761922;79;21101;-87
2022/08/17 06:23:37;;;;;;;17.85;12.95;;;;;;;20.14;100.00;97643.95;1754881;81;21045;-86
2022/08/17 06:26:23;;;;;;;17.82;13.50;;;;;;;20.19;100.00;97643.13;1741854;79;21142;-87
2022/08/17 06:28:58;;;;;;;19.92;14.50;;;;;;;20.21;100.00;97642.77;1752276;81;20990;-88
2022/08/17 06:31:28;;;;;;;19.12;13.20;;;;;;;20.28;100.00;97638.84;1754444;80;21116;-91
2022/08/17 06:33:58;;;;;;;15.93;12.90;;;;;;;20.35;100.00;97645.92;1751102;79;21496;-87
2022/08/17 06:36:51;;;;;;;13.98;12.47;;;;;;;20.44;100.00;97640.28;1751602;81;20993;-91
2022/08/17 06:40:06;;;;;;;17.05;13.03;;;;;;;20.56;100.00;97639.61;1743372;79;21301;-92
2022/08/17 06:42:56;;;;;;;19.95;13.00;;;;;;;20.57;100.00;97637.66;1748169;81;21576;-87
2022/08/17 06:45:30;;;;;;;18.80;12.85;;;;;;;20.69;100.00;97640.34;1744407;81;21104;-89
2022/08/17 06:48:35;;;;;;;17.92;13.15;;;;;;;21.00;100.00;97640.09;1750617;81;21029;-92
2022/08/17 06:51:10;;;;;;;15.25;12.68;;;;;;;21.43;100.00;97637.77;1741797;79;21053;-91
2022/08/17 06:53:49;;;;;;;24.05;13.80;;;;;;;21.89;100.00;97636.02;1759922;79;21081;-91
2022/08/17 06:56:39;;;;;;;15.30;12.33;;;;;;;22.12;100.00;97636.67;1756690;81;21774;-91
2022/08/17 06:59:06;;;;;;;15.85;12.35;;;;;;;22.23;97.22;97635.73;1748713;81;21434;-90
2022/08/17 07:01:34;;;;;;;16.17;11.80;;;;;;;22.43;95.16;97639.83;1745054;81;21438;-86
2022/08/17 07:04:20;;;;;;;15.83;12.23;;;;;;;22.66;94.70;97642.62;1750878;79;21464;-86
2022/08/17 07:06:59;;;;;;;17.42;12.13;;;;;;;22.67;94.61;97651.91;1734165;81;21125;-87
2022/08/17 07:09:29;;;;;;;15.75;11.43;;;;;;;22.88;93.14;97657.02;1741467;81;20994;-91
2022/08/17 07:12:06;;;;;;;13.32;11.75;;;;;;;23.19;91.73;97648.25;1755565;79;21450;-87
2022/08/17 07:14:54;;;;;;;18.17;12.25;;;;;;;23.51;91.54;97642.61;1763454;79;21603;-87
2022/08/17 07:17:21;;;;;;;15.63;10.95;;;;;;;23.99;91.24;97640.08;1746490;81;21108;-87
2022/08/17 07:19:49;;;;;;;12.85;11.55;;;;;;;24.54;90.04;97635.39;1740961;81;21124;-89
2022/08/17 07:22:41;;;;;;;12.85;10.80;;;;;;;25.00;86.66;97637.17;1761336;79;21130;-87
2022/08/17 07:25:10;;;;;;;14.38;12.20;;;;;;;25.68;90.07;97634.88;1754862;81;21092;-91
2022/08/17 07:27:40;;;;;;;15.93;12.00;;;;;;;26.06;87.23;97639.02;1770403;79;21013;-88
2022/08/17 07:30:18;;;;;;;16.07;10.82;;;;;;;26.28;83.53;97632.37;1744456;80;21172;-87
2022/08/17 07:32:57;;;;;;;13.62;11.35;;;;;;;26.84;84.24;97635.08;1748689;81;21156;-92
2022/08/17 07:35:38;;;;;;;12.55;10.55;;;;;;;26.97;82.19;97632.69;1747452;80;20986;-90
2022/08/17 07:38:27;;;;;;;12.90;10.58;;;;;;;27.25;80.04;97634.67;1756555;80;21028;-91
2022/08/17 07:41:03;;;;;;;14.18;10.05;;;;;;;27.69;79.92;97634.24;1738012;80;21612;-88
2022/08/17 07:43:44;;;;;;;12.00;10.32;;;;;;;27.97;74.82;97633.94;1740617;81;21052;-91
2022/08/17 07:48:53;;;;;;;13.03;9.50;;;;;;;28.76;75.83;97625.95;1701028;81;21025;-88
2022/08/17 07:51:30;;;;;;;16.23;11.60;;;;;;;28.95;74.08;97622.63;1756707;79;21136;-89
2022/08/17 07:54:01;;;;;;;16.60;11.48;;;;;;;29.24;72.17;97623.20;1723442;81;21073;-88
2022/08/17 07:56:46;;;;;;;15.15;10.72;;;;;;;29.43;71.75;97637.16;1732613;80;21126;-89
2022/08/17 07:59:25;;;;;;;13.58;10.53;;;;;;;29.77;70.84;97631.64;1731440;81;21096;-91
2022/08/17 08:02:04;;;;;;;11.20;9.95;;;;;;;30.16;69.46;97631.78;1755935;79;21013;-88
2022/08/17 08:04:41;;;;;;;13.85;11.08;;;;;;;30.41;64.80;97636.42;1739315;80;21049;-88
2022/08/17 08:07:19;;;;;;;12.85;10.75;;;;;;;30.41;65.77;97635.63;1740950;81;21727;-88
2022/08/17 08:10:16;;;;;;;13.83;10.23;;;;;;;30.76;66.15;97634.34;1740063;81;21049;-91
2022/08/17 08:12:46;;;;;;;14.45;10.98;;;;;;;30.72;58.44;97635.81;1726036;81;21293;-90
2022/08/17 08:15:21;;;;;;;12.73;10.10;;;;;;;31.36;61.40;97632.00;1741638;79;21120;-90
2022/08/17 08:17:55;;;;;;;14.58;11.73;;;;;;;31.22;59.47;97631.45;1753483;81;21109;-88
2022/08/17 08:20:41;;;;;;;22.20;11.45;;;;;;;30.65;62.57;97628.92;1751525;81;21479;-88
2022/08/17 08:23:19;;;;;;;13.20;10.43;;;;;;;31.17;60.87;97629.27;1742594;81;20997;-88
2022/08/17 08:26:14;;;;;;;11.30;9.93;;;;;;;31.69;59.72;97630.77;1711118;81;22052;-88
2022/08/17 08:29:04;;;;;;;11.53;10.10;;;;;;;32.47;59.35;97628.39;1745329;80;20957;-90
2022/08/17 08:32:21;;;;;;;14.13;10.75;;;;;;;33.43;58.08;97620.50;1740962;81;20990;-90
2022/08/17 08:34:59;;;;;;;;;;;;;;;33.52;51.33;97626.27;1745008;81;21064;-88
2022/08/17 08:37:50;;;;;;;12.90;10.90;;;;;;;31.77;52.77;97627.25;1756810;79;20207;-88
2022/08/17 08:40:33;;;;;;;12.50;9.63;;;;;;;32.73;55.91;97617.59;1748260;79;21824;-87
2022/08/17 08:43:11;;;;;;;17.05;11.95;;;;;;;32.08;55.83;97627.22;1752390;79;21072;-89
2022/08/17 08:45:51;;;;;;;15.70;10.78;;;;;;;32.04;56.81;97624.30;1752559;80;21469;-91
2022/08/17 08:48:42;;;;;;;12.10;10.75;;;;;;;32.56;56.37;97621.61;1742706;81;21476;-90
2022/08/17 08:51:19;;;;;;;14.00;12.37;;;;;;;33.12;53.40;97615.86;1750836;79;21041;-91
2022/08/17 08:54:08;;;;;;;14.63;10.85;;;;;;;33.85;52.97;97626.97;1750376;81;21259;-88
2022/08/17 08:56:50;;;;;;;11.28;9.68;;;;;;;34.54;52.75;97628.00;1762230;79;21493;-90
2022/08/17 08:59:42;;;;;;;12.43;9.73;;;;;;;35.24;48.95;97620.53;1725442;81;21089;-89
2022/08/17 09:02:37;;;;;;;12.80;9.35;;;;;;;35.65;48.70;97625.17;1745453;79;21124;-90
2022/08/17 09:05:14;;;;;;;15.50;10.00;;;;;;;35.20;43.15;97616.41;1763374;79;21025;-89
2022/08/17 09:07:49;;;;;;;11.80;10.25;;;;;;;35.94;44.82;97616.48;1760330;81;21109;-90
2022/08/17 09:10:37;;;;;;;10.70;9.65;;;;;;;36.15;42.85;97619.14;1749835;81;20953;-91
2022/08/17 09:13:26;;;;;;;12.40;9.93;;;;;;;36.38;42.76;97617.87;1747890;81;21085;-91
2022/08/17 09:16:10;;;;;;;12.30;9.50;;;;;;;36.49;41.61;97618.85;1722455;81;21039;-89
2022/08/17 09:18:43;;;;;;;12.75;10.23;;;;;;;36.87;41.92;97622.19;1723811;81;21252;-88
2022/08/17 09:21:29;;;;;;;11.45;9.68;;;;;;;36.57;37.02;97627.98;1752811;80;21167;-88
2022/08/17 09:24:21;;;;;;;14.73;9.88;;;;;;;37.55;37.95;97622.97;1747573;81;21489;-91
2022/08/17 09:26:53;;;;;;;11.38;9.63;;;;;;;37.18;37.37;97629.81;1758847;81;20966;-91
2022/08/17 09:29:23;;;;;;;12.58;9.88;;;;;;;37.83;38.02;97624.40;1745725;80;21453;-91
2022/08/17 09:31:53;;;;;;;13.28;9.18;;;;;;;38.71;37.28;97617.94;1749998;81;21085;-91
2022/08/17 09:34:28;;;;;;;10.03;9.00;;;;;;;38.13;36.18;97621.23;1752937;80;21493;-88
2022/08/17 09:37:18;;;;;;;11.65;9.10;;;;;;;39.00;36.18;97618.77;1750020;80;21401;-90
2022/08/17 09:40:08;;;;;;;14.20;9.88;;;;;;;38.73;35.27;97624.72;1715150;82;21091;-90
2022/08/17 09:42:51;;;;;;;12.82;10.43;;;;;;;39.10;34.77;97628.77;1760525;81;21021;-88
2022/08/17 09:45:41;;;;;;;14.63;8.83;;;;;;;39.05;34.54;97630.83;1751110;81;21089;-90
2022/08/17 09:48:27;;;;;;;12.40;10.15;;;;;;;39.18;34.35;97622.92;1745482;81;21022;-89
2022/08/17 09:51:01;;;;;;;13.73;10.57;;;;;;;39.20;34.62;97632.50;1758231;81;21470;-91
2022/08/17 09:53:27;;;;;;;11.12;8.25;;;;;;;39.42;32.62;97630.02;1749626;80;20994;-89
2022/08/17 09:56:13;;;;;;;12.45;8.93;;;;;;;38.03;33.43;97636.02;1744963;81;20992;-89
2022/08/17 09:59:06;;;;;;;10.00;9.00;;;;;;;38.86;33.84;97631.56;1747862;81;21014;-91
2022/08/17 10:01:41;;;;;;;10.93;8.05;;;;;;;38.60;32.33;97630.54;1748389;81;21043;-88
2022/08/17 10:04:39;;;;;;;13.45;9.78;;;;;;;39.07;33.25;97619.83;1743595;79;21100;-89
2022/08/17 10:07:29;;;;;;;13.20;7.87;;;;;;;39.36;32.92;97625.63;1738963;81;21021;-91
2022/08/17 10:10:19;;;;;;;11.25;8.45;;;;;;;38.74;31.44;97627.70;1748575;81;21046;-90
2022/08/17 10:13:10;;;;;;;8.23;7.37;;;;;;;38.69;31.96;97628.97;1750893;81;21009;-90
2022/08/17 10:15:59;;;;;;;8.68;7.58;;;;;;;38.63;30.93;97617.50;1750008;79;21503;-91
2022/08/17 10:18:36;;;;;;;12.95;8.30;;;;;;;38.37;31.05;97608.61;1748682;81;21013;-89
2022/08/17 10:27:17;;;;;;;8.90;7.95;;;;;;;34.72;38.38;97623.22;1751885;81;21164;-90
2022/08/17 10:29:51;;;;;;;15.88;8.50;;;;;;;33.33;40.23;97622.34;1749381;79;21017;-90
2022/08/17 10:32:46;;;;;;;11.20;8.58;;;;;;;32.77;41.34;97617.50;1757728;81;21013;-88
2022/08/17 10:35:44;;;;;;;13.15;9.10;;;;;;;32.28;43.29;97627.19;1731957;81;21526;-88
2022/08/17 10:38:31;;;;;;;;;;;;;;;31.57;45.11;97625.20;1749188;80;21006;-90
2022/08/17 10:41:24;;;;;;;12.30;8.98;;;;;;;30.76;48.11;97625.34;1758777;80;20417;-88
2022/08/17 10:44:13;;;;;;;10.65;8.93;;;;;;;30.41;47.40;97619.66;1758692;81;21029;-88
2022/08/17 10:47:05;;;;;;;10.72;9.13;;;;;;;29.87;49.59;97622.34;1744633;81;20969;-88
2022/08/17 10:49:35;;;;;;;14.60;10.08;;;;;;;29.83;49.13;97623.00;1728146;81;21420;-91
2022/08/17 10:52:29;;;;;;;10.78;9.73;;;;;;;29.50;50.92;97618.98;1743127;79;21081;-88
2022/08/17 10:55:07;;;;;;;9.93;8.93;;;;;;;29.50;50.92;97618.98;1750815;81;20977;-90
2022/08/17 10:57:39;;;;;;;23.40;11.30;;;;;;;29.08;51.67;97620.94;1704393;82;21113;-87
2022/08/17 11:00:29;;;;;;;10.88;8.63;;;;;;;29.28;50.73;97616.96;1751563;80;21428;-87
2022/08/17 11:02:56;;;;;;;16.37;8.83;;;;;;;29.16;50.29;97614.09;1710321;81;21153;-90
2022/08/17 11:05:54;;;;;;;10.65;8.73;;;;;;;29.00;50.08;97615.23;1748487;80;21481;-89
2022/08/17 11:08:35;;;;;;;11.90;7.70;;;;;;;29.18;50.17;97620.05;1704935;82;21607;-90
2022/08/17 11:11:26;;;;;;;11.18;9.38;;;;;;;29.17;50.34;97615.67;1753593;81;21591;-87
2022/08/17 11:14:23;;;;;;;10.58;9.48;;;;;;;29.29;50.14;97611.56;1758196;81;20978;-88
2022/08/17 11:17:13;;;;;;;10.50;8.58;;;;;;;29.40;49.99;97612.27;1749132;79;21402;-88
2022/08/17 11:19:47;;;;;;;9.38;7.78;;;;;;;29.36;49.56;97609.31;1757126;81;21092;-88
2022/08/17 11:22:34;;;;;;;10.75;8.15;;;;;;;29.40;49.74;97613.67;1760095;81;21044;-88
2022/08/17 11:25:16;;;;;;;10.20;8.85;;;;;;;29.45;49.70;97613.20;1741870;80;21508;-87
2022/08/17 11:27:43;;;;;;;15.13;9.15;;;;;;;29.31;49.61;97611.97;1754112;81;21135;-88
2022/08/17 11:30:13;;;;;;;11.45;9.08;;;;;;;29.29;49.59;97607.38;1706952;82;21107;-87
2022/08/17 11:32:44;;;;;;;12.82;8.13;;;;;;;29.32;50.02;97607.97;1721763;81;21037;-88
2022/08/17 11:35:33;;;;;;;10.23;8.30;;;;;;;29.28;49.94;97607.20;1746791;80;21018;-88
2022/08/17 11:38:30;;;;;;;10.88;8.53;;;;;;;29.21;50.35;97611.45;1721669;82;21915;-88
2022/08/17 11:41:16;;;;;;;9.90;8.55;;;;;;;29.08;50.20;97609.00;1748978;79;21502;-88
2022/08/17 11:44:09;;;;;;;13.00;9.30;;;;;;;29.07;50.64;97614.39;1755115;81;20924;-89
2022/08/17 11:53:38;;;;;;;11.88;8.85;;;;;;;28.85;49.38;97615.13;1743528;79;21048;-87
2022/08/17 11:56:09;;;;;;;11.63;8.83;;;;;;;28.89;50.24;97609.75;1750711;81;21033;-89
2022/08/17 11:58:42;;;;;;;14.90;8.03;;;;;;;28.99;49.96;97608.08;1764963;81;20922;-89
2022/08/17 12:01:23;;;;;;;13.88;8.53;;;;;;;29.03;50.11;97608.03;1763446;80;20989;-89
2022/08/17 12:03:52;;;;;;;12.25;8.18;;;;;;;28.89;50.00;97603.36;1726667;81;20994;-89
2022/08/17 12:06:29;;;;;;;8.78;7.87;;;;;;;28.79;49.28;97600.03;1726465;81;21276;-87
2022/08/17 12:09:23;;;;;;;10.40;7.83;;;;;;;28.87;49.50;97595.98;1689704;83;20953;-87
2022/08/17 12:12:00;;;;;;;11.88;9.15;;;;;;;28.96;49.32;97604.70;1745674;81;21064;-87
2022/08/17 12:14:29;;;;;;;13.98;8.65;;;;;;;28.99;49.57;97591.95;1753102;81;21021;-88
2022/08/17 12:17:08;;;;;;;9.80;8.15;;;;;;;29.03;49.81;97596.27;1727985;81;21029;-87
2022/08/17 12:19:38;;;;;;;10.65;8.20;;;;;;;29.05;49.17;97593.06;1747006;81;21221;-87